Tiempo atmosférico en la estación meteorológica de El Bosque, Cádiz (295 m.)



Fecha
DESCASC
Temp. máxima en grados centígrados (hora)
DESCASC
Temp. mínima en grados centígrados (hora)
DESCASC
Temp. media en grados centígrados
DESCASC
Racha de viento máxima en m/sg (hora)
DESCASC
Velocidad máxima media en intervalos de 10 minutos(hora)
DESCASC
Precipitaciones diarias en mm
DESCASC
Precipitaciones de 00:00 a 06:00 en mm
DESCASC
Precipitaciones de 06:00 a 12:00 en mm
DESCASC
Precipitaciones de 12:00 a 18:00 en mm
DESCASC
Precipitaciones de 18:00 a 24:00 en mm
DESCASC
16-04-2019 25.1 (16:20) 8.4 (07:50) 16.8 7.78 (16:00) 5 (18:30) 0 0 0 0 0
15-04-2019 24.7 (14:00) 12.4 (23:59) 18.6 8.89 (17:30) 5.28 (18:40) 0 0 0 0 0
14-04-2019 26.3 (17:30) 8.3 (00:00) 17.3 4.72 (16:00) 2.5 (05:20) 0 0 0 0 0
13-04-2019 22.9 (17:10) 7 (00:00) 14.9 7.5 (18:50) 4.72 (19:00) 0 0 0 0 0
12-04-2019 21.3 (17:20) 6.4 (00:00) 13.8 7.5 (14:00) 3.89 (13:30) 0 0 0 0 0
11-04-2019 19 (17:20) 4.7 (00:00) 11.8 7.22 (15:10) 3.89 (17:30) 0 0 0 0 0
10-04-2019 17.6 (19:00) 6.4 (00:00) 12 9.44 (19:10) 4.72 (19:10) 0 0 0 0 0
09-04-2019 17.2 (17:30) 6 (00:00) 11.6 9.17 (17:20) 5 (18:40) 0 0 0 0 0
08-04-2019 15.7 (14:40) 11.7 (00:00) 13.7 8.89 (15:00) 5.28 (15:00) 4.8 0 0.2 4.4 0.2
07-04-2019 13.2 (13:20) 8.4 (00:00) 10.8 9.17 (20:30) 4.17 (20:30) 14.2 1.8 0.2 6.2 6
06-04-2019 13 (16:30) 7.1 (00:00) 10 14.17 (15:40) 6.39 (17:00) 12.4 0 5.4 6.2 0.8
05-04-2019 13.7 (18:20) 8.6 (00:00) 11.2 12.5 (16:20) 6.39 (17:10) 17.2 1.6 14.4 0.2 1
04-04-2019 18.2 (16:40) 4.3 (00:00) 11.3 8.61 (17:40) 4.44 (19:50) 0 0 0 0 0
03-04-2019 21.5 (15:30) 7.7 (00:00) 14.6 8.61 (17:10) 3.89 (19:10) 0 0 0 0 0
02-04-2019 20.9 (16:20) 6.2 (00:00) 13.5 5 (14:10) 2.78 (03:50) 0 0 0 0 0
01-04-2019 17.8 (16:10) 10.6 (00:00) 14.2 9.17 (08:30) 4.72 (08:30) 3.2 0.4 2.4 0.4 0
31-03-2019 19.7 (16:00) 11.6 (00:00) 15.7 9.44 (17:00) 6.39 (17:00) 21.2 0.2 0.2 3 17.8
30-03-2019 20.9 (15:00) 9.5 (00:00) 15.2 12.78 (00:20) 7.78 (00:20) 0 0 0 0 0
29-03-2019 19.4 (12:20) 8.3 (00:00) 13.8 10.83 (23:59) 7.22 (23:59) 0 0 0 0 0
28-03-2019 19 (15:10) 6.3 (00:00) 12.7 13.89 (16:00) 7.5 (16:10) 0 0 0 0 0
27-03-2019 18.5 (14:20) 12.6 (00:00) 15.6 19.17 (07:20) 11.11 (07:30) 0 0 0 0 0
26-03-2019 21.6 (12:20) 12.4 (00:00) 17 17.5 (15:10) 10 (15:10) 0 0 0 0 0
25-03-2019 22.8 (15:00) 9.6 (00:00) 16.2 9.72 (21:10) 5.83 (21:40) 0 0 0 0 0
24-03-2019 20.5 (16:20) 9 (00:00) 14.8 15.28 (11:30) 8.89 (00:20) 0 0 0 0 0
23-03-2019 19 (13:30) 13.3 (00:00) 16.2 16.11 (11:10) 9.17 (12:40) 0 0 0 0 0
22-03-2019 19.7 (14:50) 7 (00:00) 13.4 12.78 (02:50) 7.5 (23:59) 0 0 0 0 0
21-03-2019 17.6 (14:50) 6.2 (00:00) 11.9 10.28 (14:00) 6.39 (14:10) 0 0 0 0 0
20-03-2019 17.8 (15:50) 8.3 (00:00) 13 12.5 (13:10) 7.22 (13:30) 0 0 0 0 0
19-03-2019 20.6 (15:40) 7.7 (00:00) 14.2 10 (13:50) 5 (13:50) 0 0 0 0 0

Gráficas

Temp. máximas Temp. mínimas Temp. medias Precipitaciones Rachas de viento máximas Velocidades máximas media en intervalos de 10 minutos

Datos horarios

Fecha y hora oficial Temperatura (ºC) Velocidad del viento (km/h) Dirección del viento Racha (km/h) Dirección de racha Precipitación (mm) Presión (hPa) Tendencia (hPa) Humedad (%)
2019-04-17 23:00:00 14.5 19 Sudeste 30 Este 0 -- -- 64
2019-04-17 22:00:00 13.8 18 Este 32 Sudeste 0 -- -- 69
2019-04-17 21:00:00 13.5 10 Sudeste 14 Este 0 -- -- 75
2019-04-17 20:00:00 14.2 8 Noroeste 27 Oeste 0 -- -- 73
2019-04-17 19:00:00 16.7 7 Sur 17 Sur 0 -- -- 70
2019-04-17 18:00:00 16.7 11 Sur 24 Sur 0 -- -- 71
2019-04-17 17:00:00 17.1 16 Sudoeste 35 Sudoeste 0 -- -- 67
2019-04-17 16:00:00 18.3 11 Noroeste 28 Norte 0 -- -- 60
2019-04-17 15:00:00 17.7 22 Sur 51 Sur 0 -- -- 61
2019-04-17 14:00:00 18.3 27 Sur 47 Sur 0 -- -- 58
2019-04-17 13:00:00 18.7 28 Sur 46 Sur 0 -- -- 58
2019-04-17 12:00:00 19.1 26 Sur 45 Sur 0 -- -- 54
2019-04-17 11:00:00 19.6 31 Sudeste 51 Sudeste 0 -- -- 49
2019-04-17 10:00:00 19.4 31 Sudeste 55 Sudeste 0 -- -- 45
2019-04-17 09:00:00 19.1 29 Sudeste 61 Sudeste 0 -- -- 42
2019-04-17 08:00:00 19.1 34 Sudeste 63 Este 0 -- -- 37
2019-04-17 07:00:00 19.9 39 Sudeste 69 Sudeste 0 -- -- 33
2019-04-17 06:00:00 20 36 Sudeste 78 Sudeste 0 -- -- 35
2019-04-17 05:00:00 18.3 22 Sur 41 Sudoeste 0 -- -- 41
2019-04-17 04:00:00 17.4 20 Sur 58 Sudeste 0 -- -- 45
2019-04-17 03:00:00 20.1 40 Sudeste 66 Sudeste 0 -- -- 33
2019-04-17 02:00:00 19.2 31 Sudeste 48 Sudeste 0 -- -- 33
2019-04-17 01:00:00 16.8 10 Sudoeste 28 Sur 0 -- -- 43
2019-04-17 00:00:00 16.8 14 Sur 27 Sudoeste 0 -- -- 46
2019-04-16 23:00:00 16.8 13 Sur 22 Sur 0 -- -- 42
2019-04-16 22:00:00 16.8 6 Sur 16 Sudeste 0 -- -- 54
2019-04-16 21:00:00 18 6 Sur 25 Sur 0 -- -- 54
2019-04-16 20:00:00 20.9 14 Sur 27 Sudoeste 0 -- -- 45
2019-04-16 19:00:00 22.8 15 Sur 28 Sur 0 -- -- 38
2019-04-16 18:00:00 24.2 17 Sur 27 Sur 0 -- -- 35
2019-04-16 17:00:00 24.9 14 Sur 26 Sur 0 -- -- 33
2019-04-16 16:00:00 25 15 Sudoeste 28 Sur 0 -- -- 24
2019-04-16 15:00:00 24.3 13 Sur 23 Sudoeste 0 -- -- 27
2019-04-16 14:00:00 21.8 6 Noroeste 15 Noroeste 0 -- -- 51
2019-04-16 13:00:00 20.3 5 Noroeste 11 Noroeste 0 -- -- 56
2019-04-16 12:00:00 18 3 Oeste 9 Norte 0 -- -- 68
2019-04-16 11:00:00 15.4 3 Sudoeste 6 Sudoeste 0 -- -- 74
2019-04-16 10:00:00 12.4 2 Oeste 8 Este 0 -- -- 86
2019-04-16 09:00:00 9.8 5 Este 10 Este 0 -- -- 94
2019-04-16 08:00:00 8.5 3 Este 10 Este 0 -- -- 95
2019-04-16 07:00:00 8.7 5 Sudeste 10 Este 0 -- -- 92
2019-04-16 06:00:00 9.5 4 Este 10 Este 0 -- -- 93
2019-04-16 05:00:00 10 6 Sudeste 11 Este 0 -- -- 90
2019-04-16 04:00:00 10.6 6 Este 11 Sudeste 0 -- -- 89
2019-04-16 03:00:00 12.1 5 Sudeste 8 Sudeste 0 -- -- 85
2019-04-16 02:00:00 12.8 4 Este 8 Este 0 -- -- 84
2019-04-16 01:00:00 12.5 5 Este 13 Sudeste 0 -- -- 85
2019-04-16 00:00:00 12.4 5 Este 8 Sudeste 0 -- -- 84
2019-04-15 23:00:00 13.3 3 Norte 21 Sudoeste 0 -- -- 81
2019-04-15 22:00:00 14.8 6 Oeste 14 Oeste 0 -- -- 78
2019-04-15 21:00:00 16.1 6 Oeste 29 Oeste 0 -- -- 74
2019-04-15 20:00:00 17.9 12 Oeste 27 Sudoeste 0 -- -- 67
2019-04-15 19:00:00 20.2 17 Sudoeste 29 Oeste 0 -- -- 46
2019-04-15 18:00:00 22 15 Oeste 32 Oeste 0 -- -- 33
2019-04-15 17:00:00 23.7 15 Oeste 27 Oeste 0 -- -- 30
2019-04-15 16:00:00 23.9 14 Sudoeste 27 Oeste 0 -- -- 36
2019-04-15 15:00:00 24.3 13 Oeste 28 Sudoeste 0 -- -- 40
2019-04-15 14:00:00 24.7 10 Oeste 21 Oeste 0 -- -- 43
2019-04-15 13:00:00 23.3 8 Sur 19 Sur 0 -- -- 41
2019-04-15 12:00:00 21.6 8 Sudoeste 14 Oeste 0 -- -- 43
2019-04-15 11:00:00 20.9 5 Oeste 13 Noroeste 0 -- -- 46
2019-04-15 10:00:00 17.9 6 Sur 18 Sudeste 0 -- -- 49
2019-04-15 09:00:00 16 14 Sudeste 27 Sudeste 0 -- -- 52
2019-04-15 08:00:00 17 18 Sudeste 32 Este 0 -- -- 46
2019-04-15 07:00:00 16.3 6 Sur 25 Este 0 -- -- 53
2019-04-15 06:00:00 15.8 14 Sudeste 22 Sudeste 0 -- -- 56
2019-04-15 05:00:00 17.4 13 Sudeste 23 Sur 0 -- -- 53
2019-04-15 04:00:00 15.8 12 Sudeste 20 Sudeste 0 -- -- 64
2019-04-15 03:00:00 14.6 8 Este 13 Este 0 -- -- 74
2019-04-15 02:00:00 14.9 3 Sudeste 10 Este 0 -- -- 76
2019-04-15 01:00:00 15.9 3 Sudeste 10 Sudeste 0 -- -- 74
2019-04-15 00:00:00 16.6 8 Este 10 Este 0 -- -- 71
2019-04-14 23:00:00 17.8 6 Este 10 Este 0 -- -- 65
2019-04-14 22:00:00 19.1 6 Este 7 Este 0 -- -- 63
2019-04-14 21:00:00 21.3 5 Este 7 Este 0 -- -- 54
2019-04-14 20:00:00 23.7 2 Noroeste 14 Oeste 0 -- -- 50
2019-04-14 19:00:00 25.8 5 Noroeste 14 Noroeste 0 -- -- 41
2019-04-14 18:00:00 26.2 5 Noroeste 15 Noroeste 0 -- -- 38
2019-04-14 17:00:00 26.1 6 Noroeste 13 Noroeste 0 -- -- 39
2019-04-14 16:00:00 25.9 6 Oeste 17 Noroeste 0 -- -- 39
2019-04-14 15:00:00 24.7 6 Noroeste 15 Noroeste 0 -- -- 40
2019-04-14 14:00:00 23.6 8 Noroeste 15 Noroeste 0 -- -- 41
2019-04-14 13:00:00 22.5 7 Noroeste 13 Noroeste 0 -- -- 49
2019-04-14 12:00:00 20.9 3 Noroeste 10 Noroeste 0 -- -- 52
2019-04-14 11:00:00 17.3 4 Noroeste 5 Noroeste 0 -- -- 69
2019-04-14 10:00:00 13.7 2 Sudoeste 9 Este 0 -- -- 75
2019-04-14 09:00:00 10.5 5 Sudeste 8 Este 0 -- -- 83
2019-04-14 08:00:00 8.6 0 Calma 6 Sudeste 0 -- -- 86
2019-04-14 07:00:00 8.5 0 Calma 6 Este 0 -- -- 86
2019-04-14 06:00:00 8.7 2 Este 12 Sudeste 0 -- -- 85
2019-04-14 05:00:00 8.9 5 Este 8 Este 0 -- -- 85
2019-04-14 04:00:00 9.3 3 Nordeste 8 Este 0 -- -- 82
2019-04-14 03:00:00 9.6 2 Este 5 Este 0 -- -- 83
2019-04-14 02:00:00 9.8 3 Nordeste 8 Este 0 -- -- 83
2019-04-14 01:00:00 10.8 3 Nordeste 12 Sudeste 0 -- -- 79
2019-04-14 00:00:00 11.6 8 Este 13 Sudeste 0 -- -- 76
2019-04-13 23:00:00 13.1 5 Este 9 Este 0 -- -- 70
2019-04-13 22:00:00 15 3 Sudeste 6 Este 0 -- -- 62
2019-04-13 21:00:00 17.7 4 Sudoeste 14 Oeste 0 -- -- 54
2019-04-13 20:00:00 20.5 6 Oeste 26 Sudoeste 0 -- -- 44
2019-04-13 19:00:00 21.4 17 Oeste 27 Oeste 0 -- -- 43
2019-04-13 18:00:00 22.7 10 Noroeste 21 Oeste 0 -- -- 35
2019-04-13 17:00:00 22.5 11 Noroeste 26 Oeste 0 -- -- 37
2019-04-13 16:00:00 22.4 9 Oeste 21 Noroeste 0 -- -- 36
2019-04-13 15:00:00 21.9 11 Oeste 22 Oeste 0 -- -- 39
2019-04-13 14:00:00 21.5 8 Oeste 17 Sudoeste 0 -- -- 41
2019-04-13 13:00:00 20 7 Noroeste 15 Noroeste 0 -- -- 48
2019-04-13 12:00:00 18.5 4 Noroeste 9 Oeste 0 -- -- 52
2019-04-13 11:00:00 15.2 3 Oeste 5 Oeste 0 -- -- 66
2019-04-13 10:00:00 11.6 2 Noroeste 4 Noroeste 0 -- -- 74
2019-04-13 09:00:00 8.3 0 Calma 6 Sudeste 0 -- -- 86
2019-04-13 08:00:00 7.2 0 Calma 4 Sudeste 0 -- -- 84
2019-04-13 07:00:00 7.2 0 Calma 3 Este 0 -- -- 84
2019-04-13 06:00:00 7.7 2 Norte 4 Noroeste 0 -- -- 81
2019-04-13 05:00:00 7.7 0 Calma 8 Sudeste 0 -- -- 82
2019-04-13 04:00:00 7.9 0 Calma 5 Este 0 -- -- 81
2019-04-13 03:00:00 8.1 0 Calma 11 Sudeste 0 -- -- 81
2019-04-13 02:00:00 8.8 4 Este 14 Este 0 -- -- 76
2019-04-13 01:00:00 9.2 7 Sudeste 14 Sudeste 0 -- -- 75
2019-04-13 00:00:00 11.4 6 Este 12 Este 0 -- -- 66
2019-04-12 23:00:00 12.7 6 Este 11 Este 0 -- -- 60
2019-04-12 22:00:00 14.9 4 Oeste 19 Norte 0 -- -- 52
2019-04-12 21:00:00 16.8 3 Norte 12 Noroeste 0 -- -- 46
2019-04-12 20:00:00 19.9 8 Noroeste 19 Noroeste 0 -- -- 35
2019-04-12 19:00:00 20.7 9 Noroeste 22 Noroeste 0 -- -- 39
2019-04-12 18:00:00 21 11 Noroeste 21 Norte 0 -- -- 39
2019-04-12 17:00:00 21 11 Noroeste 21 Norte 0 -- -- 37
2019-04-12 16:00:00 20.9 10 Oeste 23 Oeste 0 -- -- 37
2019-04-12 15:00:00 20.5 12 Noroeste 25 Oeste 0 -- -- 42
2019-04-12 14:00:00 19.9 13 Noroeste 27 Oeste 0 -- -- 42
2019-04-12 13:00:00 19.4 11 Noroeste 20 Noroeste 0 -- -- 40
2019-04-12 12:00:00 17.5 5 Oeste 9 Sudoeste 0 -- -- 58
2019-04-12 11:00:00 14.3 3 Noroeste 5 Norte 0 -- -- 68
2019-04-12 10:00:00 10.7 2 Noroeste 4 Noroeste 0 -- -- 77
2019-04-12 09:00:00 7.4 2 Nordeste 5 Sudeste 0 -- -- 91
2019-04-12 08:00:00 6.6 0 Calma 10 Sudeste 0 -- -- 90
2019-04-12 07:00:00 6.9 4 Este 8 Este 0 -- -- 89
2019-04-12 06:00:00 7.8 6 Este 9 Este 0 -- -- 89
2019-04-12 05:00:00 7.9 2 Este 5 Este 0 -- -- 91
2019-04-12 04:00:00 8.4 0 Calma 8 Este 0 -- -- 89
2019-04-12 03:00:00 8.7 2 Este 8 Sudeste 0 -- -- 90
2019-04-12 02:00:00 9 3 Sur 12 Sudeste 0 -- -- 89
2019-04-12 01:00:00 9.3 7 Sudeste 12 Sudeste 0 -- -- 89
2019-04-12 00:00:00 10.5 7 Este 10 Este 0 -- -- 86
2019-04-11 23:00:00 11.9 0 Calma 6 Noroeste 0 -- -- 85
2019-04-11 22:00:00 13.5 5 Oeste 15 Oeste 0 -- -- 76
2019-04-11 21:00:00 15 0 Calma 13 Noroeste 0 -- -- 60
2019-04-11 20:00:00 17.9 5 Noroeste 17 Noroeste 0 -- -- 47
2019-04-11 19:00:00 19 7 Noroeste 20 Norte 0 -- -- 46
2019-04-11 18:00:00 18.3 9 Noroeste 23 Noroeste 0 -- -- 45
2019-04-11 17:00:00 18.6 11 Noroeste 21 Noroeste 0 -- -- 49
2019-04-11 16:00:00 17.9 10 Noroeste 26 Oeste 0 -- -- 53
2019-04-11 15:00:00 18.1 12 Oeste 25 Noroeste 0 -- -- 54
2019-04-11 14:00:00 16.9 10 Noroeste 19 Noroeste 0 -- -- 59
2019-04-11 13:00:00 16 7 Noroeste 17 Noroeste 0 -- -- 65
2019-04-11 12:00:00 14.4 6 Noroeste 11 Oeste 0 -- -- 74
2019-04-11 11:00:00 11.5 3 Noroeste 6 Norte 0 -- -- 82
2019-04-11 10:00:00 8.1 2 Noroeste 4 Sudeste 0 -- -- 94
2019-04-11 09:00:00 5.6 0 Calma 7 Sudeste 0 -- -- 97
2019-04-11 08:00:00 5 0 Calma 3 Este 0 -- -- 95
2019-04-11 07:00:00 5.4 0 Calma 5 Este 0 -- -- 95
2019-04-11 06:00:00 5.7 3 Sudeste 6 Este 0 -- -- 93
2019-04-11 05:00:00 6.8 4 Este 6 Este 0 -- -- 94
2019-04-11 04:00:00 7.2 0 Calma 9 Este 0 -- -- 93
2019-04-11 03:00:00 7.9 3 Este 7 Sudeste 0 -- -- 93
2019-04-11 02:00:00 8.8 0 Calma 6 Este 0 -- -- 93
2019-04-11 01:00:00 9.5 6 Este 10 Este 0 -- -- 91
2019-04-11 00:00:00 10.6 5 Este 7 Este 0 -- -- 88
2019-04-10 23:00:00 12 4 Sudeste 6 Este 0 -- -- 85
2019-04-10 22:00:00 13.6 0 Calma 14 Sudoeste 0 -- -- 80
2019-04-10 21:00:00 14.4 7 Oeste 30 Oeste 0 -- -- 75
2019-04-10 20:00:00 15.8 14 Oeste 34 Oeste 0 -- -- 67
2019-04-10 19:00:00 17.6 13 Oeste 27 Oeste 0 -- -- 56
2019-04-10 18:00:00 16.3 11 Oeste 25 Noroeste 0 -- -- 59
2019-04-10 17:00:00 15.8 13 Noroeste 30 Noroeste 0 -- -- 51
2019-04-10 16:00:00 16.1 10 Noroeste 24 Oeste 0 -- -- 55
2019-04-10 15:00:00 16.2 12 Noroeste 32 Oeste 0 -- -- 60
2019-04-10 14:00:00 14.8 13 Noroeste 25 Oeste 0 -- -- 60
2019-04-10 13:00:00 13.8 8 Noroeste 23 Noroeste 0 -- -- 64
2019-04-10 12:00:00 12.8 12 Noroeste 27 Norte 0 -- -- 70
2019-04-10 11:00:00 12.1 13 Noroeste 24 Norte 0 -- -- 74
2019-04-10 10:00:00 9.3 2 Oeste 6 Oeste 0 -- -- 90
2019-04-10 09:00:00 7 0 Calma 4 Norte 0 -- -- 96
2019-04-10 08:00:00 6.6 0 Calma 7 Oeste 0 -- -- 94
2019-04-10 07:00:00 6.9 0 Calma 6 Noroeste 0 -- -- 94
2019-04-10 06:00:00 7.2 0 Calma 5 Oeste 0 -- -- 93
2019-04-10 05:00:00 8.2 3 Noroeste 6 Noroeste 0 -- -- 91
2019-04-10 04:00:00 9.2 2 Noroeste 6 Oeste 0 -- -- 88
2019-04-10 03:00:00 9.7 3 Norte 10 Noroeste 0 -- -- 88
2019-04-10 02:00:00 10.9 7 Noroeste 14 Noroeste 0 -- -- 84
2019-04-10 01:00:00 11.6 0 Calma 7 Noroeste 0 -- -- 89
2019-04-10 00:00:00 12 0 Calma 4 Sudoeste 0 -- -- 87
2019-04-09 23:00:00 12.3 2 Sudeste 8 Sudoeste 0 -- -- 85
2019-04-09 22:00:00 12.4 3 Sudoeste 12 Oeste 0 -- -- 82
2019-04-09 21:00:00 13.3 4 Oeste 19 Oeste 0 -- -- 77
2019-04-09 20:00:00 14.9 12 Oeste 28 Oeste 0 -- -- 69
2019-04-09 19:00:00 16.3 14 Oeste 31 Sudoeste 0 -- -- 62
2019-04-09 18:00:00 16.4 14 Oeste 33 Noroeste 0 -- -- 62
2019-04-09 17:00:00 15.9 15 Oeste 32 Oeste 0 -- -- 61
2019-04-09 16:00:00 16.8 15 Oeste 32 Oeste 0 -- -- 62
2019-04-09 15:00:00 16.1 14 Noroeste 31 Oeste 0 -- -- 60
2019-04-09 14:00:00 15.3 14 Oeste 29 Oeste 0 -- -- 66
2019-04-09 13:00:00 14.4 15 Oeste 30 Oeste 0 -- -- 71
2019-04-09 12:00:00 14 10 Oeste 25 Oeste 0 -- -- 78
2019-04-09 11:00:00 11.1 2 Sudoeste 7 Sur 0 -- -- 96
2019-04-09 10:00:00 8.5 3 Sudoeste 7 Sudoeste 0 -- -- 97
2019-04-09 09:00:00 6.6 0 Calma 4 Noroeste 0 -- -- 97
2019-04-09 08:00:00 6.1 4 Este 6 Este 0 -- -- 95
2019-04-09 07:00:00 6.4 0 Calma 6 Sudeste 0 -- -- 94
2019-04-09 06:00:00 7 0 Calma 9 Norte 0 -- -- 93
2019-04-09 05:00:00 7.5 0 Calma 10 Norte 0 -- -- 92
2019-04-09 04:00:00 9.1 5 Norte 10 Noroeste 0 -- -- 87
2019-04-09 03:00:00 10.2 6 Norte 13 Norte 0 -- -- 85
2019-04-09 02:00:00 10.6 0 Calma 14 Oeste 0 -- -- 91
2019-04-09 01:00:00 11.6 4 Oeste 15 Norte 0 -- -- 89
2019-04-09 00:00:00 11.8 4 Oeste 12 Sudoeste 0 -- -- 88
2019-04-08 23:00:00 12.2 4 Oeste 17 Sudoeste 0 -- -- 88
2019-04-08 22:00:00 12.5 5 Sudoeste 14 Sur 0 -- -- 90
2019-04-08 21:00:00 12.9 3 Sudoeste 15 Oeste 0.2 -- -- 91
2019-04-08 20:00:00 13.5 6 Sudoeste 21 Sudoeste 0 -- -- 88
2019-04-08 19:00:00 13.5 9 Sudoeste 14 Sudoeste 0 -- -- 91
2019-04-08 18:00:00 13.1 10 Sudoeste 18 Sudoeste 0.4 -- -- 93
2019-04-08 17:00:00 12.7 10 Oeste 28 Oeste 3.4 -- -- 93
2019-04-08 16:00:00 14.3 10 Oeste 31 Sudoeste 0.2 -- -- 90
2019-04-08 15:00:00 15.5 19 Sudoeste 32 Oeste 0 -- -- 73
2019-04-08 14:00:00 14.7 7 Sudoeste 21 Sudoeste 0.4 -- -- 85
2019-04-08 13:00:00 14.8 10 Oeste 19 Oeste 0 -- -- 81
2019-04-08 12:00:00 15.5 10 Sur 17 Sur 0 -- -- 79
2019-04-08 11:00:00 13.5 3 Oeste 14 Sudeste 0.2 -- -- 89
2019-04-08 10:00:00 13 9 Sudeste 14 Sudeste 0 -- -- 87
2019-04-08 09:00:00 12.2 9 Sur 14 Sudeste 0 -- -- 91
2019-04-08 08:00:00 12.4 5 Sudeste 12 Sudeste 0 -- -- 90
2019-04-08 07:00:00 12.6 4 Sudeste 11 Sudoeste 0 -- -- 92
2019-04-08 06:00:00 12.7 2 Sur 7 Sudoeste 0 -- -- 92
2019-04-08 05:00:00 12.8 4 Sudoeste 15 Oeste 0 -- -- 92
2019-04-08 04:00:00 12.9 6 Sudoeste 12 Sudoeste 0 -- -- 92
2019-04-08 03:00:00 12.9 4 Sudeste 9 Oeste 0 -- -- 91
2019-04-08 02:00:00 13.1 2 Sudoeste 13 Sudoeste 0 -- -- 92
2019-04-08 01:00:00 13.2 7 Sudoeste 17 Sudoeste 0 -- -- 93
2019-04-08 00:00:00 13 6 Sudoeste 13 Oeste 0 -- -- 94
2019-04-07 23:00:00 12.6 5 Sudoeste 13 Sudoeste 0 -- -- 95
2019-04-07 22:00:00 12.5 5 Sudoeste 21 Oeste 0.2 -- -- 95
2019-04-07 21:00:00 12.6 10 Oeste 33 Sudoeste 0.6 -- -- 94
2019-04-07 20:00:00 12.9 11 Oeste 32 Oeste 2.6 -- -- 94
2019-04-07 19:00:00 12.7 8 Sudoeste 21 Sudoeste 2.6 -- -- 95
2019-04-07 18:00:00 12.2 4 Sur 11 Sudeste 4.4 -- -- 94
2019-04-07 17:00:00 12 4 Sudeste 15 Sur 0.8 -- -- 93
2019-04-07 16:00:00 12.5 0 Calma 22 Sudoeste 0.2 -- -- 86
2019-04-07 15:00:00 12.4 6 Sur 23 Sudoeste 0.6 -- -- 85
2019-04-07 14:00:00 13 13 Oeste 24 Oeste 0.2 -- -- 77
2019-04-07 13:00:00 12.5 4 Nordeste 13 Sur 0 -- -- 82
2019-04-07 12:00:00 12 4 Sudeste 6 Sudoeste 0 -- -- 84
2019-04-07 11:00:00 11.5 0 Calma 7 Norte 0 -- -- 84
2019-04-07 10:00:00 10.2 0 Calma 6 Este 0 -- -- 94
2019-04-07 09:00:00 8.9 5 Norte 8 Noroeste 0.2 -- -- 95
2019-04-07 08:00:00 8.5 0 Calma 9 Este 0 -- -- 93
2019-04-07 07:00:00 8.8 2 Este 9 Sudeste 0 -- -- 94
2019-04-07 06:00:00 9.1 0 Calma 5 Sudeste 0 -- -- 94
2019-04-07 05:00:00 9.2 3 Noroeste 17 Sudoeste 1.6 -- -- 93
2019-04-07 04:00:00 9.7 4 Oeste 7 Oeste 0.2 -- -- 88
2019-04-07 03:00:00 9.7 2 Noroeste 8 Oeste 0 -- -- 87
2019-04-07 02:00:00 9.7 3 Oeste 9 Oeste 0 -- -- 89
2019-04-07 01:00:00 9.9 4 Oeste 19 Oeste 0 -- -- 88
2019-04-07 00:00:00 10.2 9 Oeste 24 Oeste 0.6 -- -- 88
2019-04-06 23:00:00 10.9 11 Oeste 21 Oeste 0 -- -- 80
2019-04-06 22:00:00 11.1 12 Oeste 25 Oeste 0 -- -- 79
2019-04-06 21:00:00 11.4 15 Oeste 38 Oeste 0.2 -- -- 77
2019-04-06 20:00:00 12.1 17 Oeste 40 Oeste 0 -- -- 72
2019-04-06 19:00:00 12.9 18 Oeste 33 Oeste 0 -- -- 67
2019-04-06 18:00:00 12.4 16 Oeste 39 Oeste 2.2 -- -- 80
2019-04-06 17:00:00 12.8 23 Sudoeste 38 Sudoeste 0 -- -- 70
2019-04-06 16:00:00 10.7 14 Oeste 51 Oeste 2.2 -- -- 86
2019-04-06 15:00:00 12 15 Sudoeste 31 Sudoeste 0 -- -- 75
2019-04-06 14:00:00 11.5 10 Oeste 31 Oeste 1.4 -- -- 88
2019-04-06 13:00:00 11.2 9 Sur 17 Sudeste 0.4 -- -- 82
2019-04-06 12:00:00 10.3 6 Oeste 15 Oeste 1 -- -- 85
2019-04-06 11:00:00 9.9 7 Sudeste 12 Sudeste 0 -- -- 87
2019-04-06 10:00:00 8.1 4 Sudoeste 13 Sudoeste 3.2 -- -- 90
2019-04-06 09:00:00 7.7 8 Este 12 Este 0 -- -- 93
2019-04-06 08:00:00 7.6 0 Calma 22 Sudoeste 1.2 -- -- 91
2019-04-06 07:00:00 8 3 Noroeste 9 Sudoeste 0 -- -- 88
2019-04-06 06:00:00 7.3 0 Calma 5 Oeste 0 -- -- 89
2019-04-06 05:00:00 7.5 2 Este 6 Este 0 -- -- 86
2019-04-06 04:00:00 7.1 2 Nordeste 10 Norte 0 -- -- 86
2019-04-06 03:00:00 8 3 Norte 12 Norte 0 -- -- 81
2019-04-06 02:00:00 8.1 3 Norte 9 Norte 0 -- -- 80
2019-04-06 01:00:00 8.8 4 Noroeste 9 Noroeste 0 -- -- 77
2019-04-06 00:00:00 9.1 3 Noroeste 15 Norte 0 -- -- 77
2019-04-05 23:00:00 9.1 6 Noroeste 21 Noroeste 0 -- -- 74
2019-04-05 22:00:00 9.7 12 Oeste 27 Oeste 0 -- -- 76
2019-04-05 21:00:00 9.6 6 Oeste 32 Oeste 0 -- -- 79
2019-04-05 20:00:00 10.5 12 Noroeste 27 Oeste 1 -- -- 76
2019-04-05 19:00:00 11.7 13 Oeste 35 Oeste 0 -- -- 64
2019-04-05 18:00:00 13.3 18 Oeste 38 Oeste 0 -- -- 54
2019-04-05 17:00:00 13.6 21 Oeste 45 Oeste 0 -- -- 56
2019-04-05 16:00:00 11.7 20 Noroeste 37 Oeste 0 -- -- 58
2019-04-05 15:00:00 12.7 16 Oeste 31 Oeste 0 -- -- 62
2019-04-05 14:00:00 11.7 14 Noroeste 31 Noroeste 0 -- -- 68
2019-04-05 13:00:00 10.4 15 Noroeste 28 Noroeste 0.2 -- -- 82
2019-04-05 12:00:00 9.7 13 Noroeste 32 Oeste 1.8 -- -- 85
2019-04-05 11:00:00 10.6 15 Sur 28 Sur 0 -- -- 85
2019-04-05 10:00:00 9.5 11 Sudeste 33 Sudeste 0.4 -- -- 84
2019-04-05 09:00:00 9.4 14 Sur 30 Sur 5 -- -- 89
2019-04-05 08:00:00 9.7 9 Oeste 26 Oeste 6.2 -- -- 92
2019-04-05 07:00:00 9.9 11 Sudeste 24 Sur 1 -- -- 88
2019-04-05 06:00:00 9.6 10 Sur 18 Sudeste 1.6 -- -- 86
2019-04-05 05:00:00 10.3 9 Sudeste 21 Sudeste 0 -- -- 76
2019-04-05 04:00:00 10 4 Sur 10 Sur 0 -- -- 81
2019-04-05 03:00:00 9.9 5 Sudoeste 14 Sudoeste 0 -- -- 80
2019-04-05 02:00:00 10.3 5 Sur 11 Sur 0 -- -- 73
2019-04-05 01:00:00 10 3 Sur 14 Sudeste 0 -- -- 70
2019-04-05 00:00:00 8.6 9 Sudeste 19 Este 0 -- -- 70
2019-04-04 23:00:00 9.3 12 Sudeste 16 Sudeste 0 -- -- 64
2019-04-04 22:00:00 10 3 Sur 14 Sudoeste 0 -- -- 60
2019-04-04 21:00:00 11.8 6 Sudoeste 26 Sudoeste 0 -- -- 51
2019-04-04 20:00:00 14.5 13 Oeste 31 Oeste 0 -- -- 42
2019-04-04 19:00:00 16.4 13 Oeste 27 Oeste 0 -- -- 41
2019-04-04 18:00:00 17.6 13 Oeste 31 Sudoeste 0 -- -- 43
2019-04-04 17:00:00 17.9 11 Oeste 26 Noroeste 0 -- -- 41
2019-04-04 16:00:00 17.8 11 Oeste 21 Oeste 0 -- -- 39
2019-04-04 15:00:00 17.4 14 Sudoeste 22 Sudoeste 0 -- -- 37
2019-04-04 14:00:00 17.1 8 Sudoeste 25 Noroeste 0 -- -- 44
2019-04-04 13:00:00 15.7 8 Noroeste 15 Oeste 0 -- -- 41
2019-04-04 12:00:00 14.1 5 Oeste 9 Oeste 0 -- -- 51
2019-04-04 11:00:00 11.3 3 Noroeste 6 Noroeste 0 -- -- 73
2019-04-04 10:00:00 8.3 2 Sudoeste 7 Sudeste 0 -- -- 85
2019-04-04 09:00:00 4.4 3 Este 10 Este 0 -- -- 93
2019-04-04 08:00:00 4.6 5 Este 8 Este 0 -- -- 91
2019-04-04 07:00:00 5.4 5 Este 10 Sudeste 0 -- -- 89
2019-04-04 06:00:00 6.4 7 Este 9 Este 0 -- -- 86
2019-04-04 05:00:00 6.8 4 Sudeste 7 Sudeste 0 -- -- 86
2019-04-04 04:00:00 7.2 0 Calma 0 Calma 0 -- -- 89
2019-04-04 03:00:00 7.6 0 Calma 2 Oeste 0 -- -- 89
2019-04-04 02:00:00 8.2 0 Calma 6 Sudeste 0 -- -- 86
2019-04-04 01:00:00 8.9 3 Este 8 Este 0 -- -- 84
2019-04-04 00:00:00 9.8 5 Este 10 Este 0 -- -- 79
2019-04-03 23:00:00 11.8 0 Calma 8 Noroeste 0 -- -- 71
2019-04-03 22:00:00 13.1 3 Norte 13 Oeste 0 -- -- 63
2019-04-03 21:00:00 15 3 Noroeste 17 Oeste 0 -- -- 51
2019-04-03 20:00:00 17.8 11 Noroeste 30 Oeste 0 -- -- 45
2019-04-03 19:00:00 19.9 13 Noroeste 30 Oeste 0 -- -- 41
2019-04-03 18:00:00 20.8 14 Oeste 31 Oeste 0 -- -- 38
2019-04-03 17:00:00 21.1 11 Noroeste 24 Oeste 0 -- -- 42
2019-04-03 16:00:00 21.2 12 Noroeste 24 Oeste 0 -- -- 46
2019-04-03 15:00:00 20.8 9 Noroeste 21 Oeste 0 -- -- 50
2019-04-03 14:00:00 20 10 Noroeste 21 Noroeste 0 -- -- 52
2019-04-03 13:00:00 20 13 Oeste 26 Oeste 0 -- -- 52
2019-04-03 12:00:00 17.9 5 Oeste 9 Noroeste 0 -- -- 62
2019-04-03 11:00:00 14.7 3 Noroeste 5 Oeste 0 -- -- 77
2019-04-03 10:00:00 11.3 0 Calma 4 Este 0 -- -- 86
2019-04-03 09:00:00 8 2 Este 8 Este 0 -- -- 93
2019-04-03 08:00:00 8 0 Calma 8 Sudeste 0 -- -- 93
2019-04-03 07:00:00 8.1 0 Calma 4 Este 0 -- -- 93
2019-04-03 06:00:00 8.1 0 Calma 4 Este 0 -- -- 92
2019-04-03 05:00:00 8.7 2 Este 12 Este 0 -- -- 89
2019-04-03 04:00:00 9.1 4 Este 6 Este 0 -- -- 89
2019-04-03 03:00:00 9.6 3 Sudeste 9 Este 0 -- -- 87
2019-04-03 02:00:00 10.2 5 Este 8 Sudeste 0 -- -- 85
2019-04-03 01:00:00 11.2 0 Calma 8 Este 0 -- -- 82
2019-04-03 00:00:00 11.9 4 Este 9 Norte 0 -- -- 78
2019-04-02 23:00:00 13 0 Calma 11 Este 0 -- -- 76
2019-04-02 22:00:00 14.6 3 Este 9 Este 0 -- -- 71
2019-04-02 21:00:00 16.1 3 Norte 10 Nordeste 0 -- -- 63
2019-04-02 20:00:00 18.2 6 Noroeste 13 Noroeste 0 -- -- 57
2019-04-02 19:00:00 19.9 6 Oeste 15 Noroeste 0 -- -- 51
2019-04-02 18:00:00 19.6 9 Oeste 15 Oeste 0 -- -- 53
2019-04-02 17:00:00 20.5 7 Noroeste 18 Noroeste 0 -- -- 50
2019-04-02 16:00:00 20.6 6 Oeste 16 Noroeste 0 -- -- 52
2019-04-02 15:00:00 19.9 8 Noroeste 18 Oeste 0 -- -- 55
2019-04-02 14:00:00 19 4 Oeste 14 Oeste 0 -- -- 57
2019-04-02 13:00:00 17.2 4 Noroeste 10 Norte 0 -- -- 65
2019-04-02 12:00:00 16.1 5 Oeste 9 Oeste 0 -- -- 66
2019-04-02 11:00:00 12.4 3 Noroeste 5 Noroeste 0 -- -- 82
2019-04-02 10:00:00 9.4 0 Calma 5 Este 0 -- -- 93
2019-04-02 09:00:00 6.7 3 Este 5 Este 0 -- -- 95
2019-04-02 08:00:00 6.3 2 Este 7 Este 0 -- -- 94
2019-04-02 07:00:00 6.9 5 Este 9 Este 0 -- -- 95
2019-04-02 06:00:00 7.1 5 Este 7 Este 0 -- -- 94
2019-04-02 05:00:00 7.5 3 Nordeste 10 Sudeste 0 -- -- 94
2019-04-02 04:00:00 8.2 9 Sudeste 16 Sudeste -- -- -- 92
2019-04-02 03:00:00 8.9 9 Este 15 Este 0 -- -- 93
2019-04-02 02:00:00 9.4 3 Sudeste 12 Este 0 -- -- 91
2019-04-02 01:00:00 9.9 8 Este 12 Este 0 -- -- 92
2019-04-02 00:00:00 10.8 7 Sudeste 13 Este 0 -- -- 89
2019-04-01 23:00:00 11.9 8 Este 10 Este 0 -- -- 86
2019-04-01 22:00:00 13.2 3 Sudeste 7 Sur 0 -- -- 80
2019-04-01 21:00:00 14.6 6 Sur 14 Sur 0 -- -- 74
2019-04-01 20:00:00 16 5 Sudoeste 19 Sudoeste 0 -- -- 69
2019-04-01 19:00:00 16 6 Sur 22 Sur 0 -- -- 73
2019-04-01 18:00:00 16.9 13 Sur 27 Sur 0 -- -- 70
2019-04-01 17:00:00 17.4 12 Sudoeste 22 Sur 0 -- -- 73
2019-04-01 16:00:00 17 11 Sudeste 22 Sudeste 0.2 -- -- 76
2019-04-01 15:00:00 14.6 10 Sur 24 Sur 0 -- -- 83
2019-04-01 14:00:00 15.9 8 Sudeste 21 Sur 0 -- -- 75
2019-04-01 13:00:00 14.2 13 Sudeste 26 Este 0.2 -- -- 85
2019-04-01 12:00:00 13 5 Sur 18 Sudeste 1 -- -- 88
2019-04-01 11:00:00 12.8 8 Sudeste 21 Sudeste 0.2 -- -- 89
2019-04-01 10:00:00 11.5 10 Este 23 Este 0.2 -- -- 87
2019-04-01 09:00:00 11.5 12 Este 33 Sudeste 0.6 -- -- 89
2019-04-01 08:00:00 11.7 14 Sudeste 27 Sudeste 0 -- -- 86
2019-04-01 07:00:00 11.8 13 Sudeste 24 Sur 0.4 -- -- 87
2019-04-01 06:00:00 11.4 5 Sudeste 21 Este 0.4 -- -- 91
2019-04-01 05:00:00 11 11 Sudeste 24 Este 0 -- -- 91
2019-04-01 04:00:00 10.6 12 Sudeste 19 Sudeste 0 -- -- 91
2019-04-01 03:00:00 11.4 11 Sudeste 18 Sudeste 0 -- -- 90
2019-04-01 02:00:00 12.1 9 Sudeste 16 Sudeste 0 -- -- 91
2019-04-01 01:00:00 12.6 7 Sudeste 12 Sudeste 0 -- -- 92
2019-04-01 00:00:00 12.7 3 Sudeste 14 Este 0.2 -- -- 92
2019-03-31 23:00:00 12.6 6 Este 14 Este 0 -- -- 89
2019-03-31 22:00:00 12.5 3 Este 20 Norte 0 -- -- 89
2019-03-31 21:00:00 11.9 11 Norte 22 Oeste 17.6 -- -- 84
2019-03-31 20:00:00 16.7 4 Este 18 Este 0 -- -- 75
2019-03-31 19:00:00 17.1 11 Este 22 Este 0 -- -- 69
2019-03-31 18:00:00 14.6 10 Este 29 Sur 2 -- -- 84
2019-03-31 17:00:00 14.9 23 Sudoeste 34 Sudoeste 1 -- -- 77
2019-03-31 16:00:00 19.7 8 Sur 17 Sudoeste 0 -- -- 59
2019-03-31 15:00:00 18.7 8 Oeste 15 Noroeste 0 -- -- 58
2019-03-31 14:00:00 18.4 4 Noroeste 12 Noroeste 0 -- -- 60
2019-03-31 13:00:00 18.2 5 Sudoeste 14 Oeste 0 -- -- 60
2019-03-31 12:00:00 16.3 4 Noroeste 9 Norte 0 -- -- 73
2019-03-31 11:00:00 13.5 5 Nordeste 9 Este 0 -- -- 87
2019-03-31 10:00:00 12.1 4 Sur 6 Sudeste 0 -- -- 91
2019-03-31 09:00:00 11.6 3 Sudeste 8 Norte 0.2 -- -- 91
2019-03-31 08:00:00 12.1 5 Este 18 Sudeste 0 -- -- 88
2019-03-31 07:00:00 12.2 7 Este 15 Este 0 -- -- 86
2019-03-31 06:00:00 12 5 Sudeste 12 Sudeste 0.2 -- -- 91
2019-03-31 05:00:00 12.3 3 Sur 7 Sur 0 -- -- 86
2019-03-31 03:00:00 13 3 Norte 11 Norte 0 -- -- 75
2019-03-31 01:00:00 13.5 6 Norte 28 Este 0 -- -- 72
2019-03-31 00:00:00 13.6 15 Este 27 Este 0 -- -- 73
2019-03-30 23:00:00 14.4 7 Sur 17 Sur 0 -- -- 63
2019-03-30 22:00:00 14.4 8 Sur 21 Sudoeste 0 -- -- 65
2019-03-30 21:00:00 15.3 12 Sudeste 32 Este 0 -- -- 61
2019-03-30 20:00:00 15.2 13 Sudeste 27 Sudeste 0 -- -- 62
2019-03-30 19:00:00 15.5 13 Sur 35 Sudeste 0 -- -- 62
2019-03-30 18:00:00 16.2 26 Sudeste 40 Sudeste 0 -- -- 59
2019-03-30 17:00:00 16.5 24 Sur 41 Sur 0 -- -- 60
2019-03-30 16:00:00 18.9 23 Sur 44 Sur 0 -- -- 54
2019-03-30 15:00:00 20.9 12 Sudeste 34 Sur 0 -- -- 48
2019-03-30 14:00:00 20.3 19 Sur 33 Sur 0 -- -- 46
2019-03-30 13:00:00 19.9 17 Sur 35 Sudoeste 0 -- -- 48
2019-03-30 12:00:00 19.3 12 Sur 37 Sur 0 -- -- 49
2019-03-30 11:00:00 17.7 12 Sudoeste 28 Sur 0 -- -- 52
2019-03-30 10:00:00 15.4 6 Nordeste 20 Norte 0 -- -- 58
2019-03-30 09:00:00 12.9 9 Norte 19 Norte 0 -- -- 66
2019-03-30 08:00:00 12.3 9 Sudeste 22 Sur 0 -- -- 64
2019-03-30 07:00:00 11.2 7 Sudeste 14 Sudeste 0 -- -- 71
2019-03-30 06:00:00 9.6 2 Noroeste 12 Noroeste 0 -- -- 80
2019-03-30 05:00:00 12.9 5 Sudeste 27 Este 0 -- -- 60
2019-03-30 04:00:00 13.4 5 Nordeste 37 Sudeste 0 -- -- 59
2019-03-30 03:00:00 12.8 4 Sudoeste 28 Sur 0 -- -- 57
2019-03-30 02:00:00 13.3 13 Sur 41 Sudeste 0 -- -- 58
2019-03-30 01:00:00 13.4 25 Sudeste 46 Sudeste 0 -- -- 60
2019-03-30 00:00:00 13.7 26 Sudeste 39 Sudeste 0 -- -- 59
2019-03-29 23:00:00 13 10 Sur 32 Sur 0 -- -- 58
2019-03-29 22:00:00 13.1 15 Sur 25 Sur 0 -- -- 60
2019-03-29 21:00:00 13.1 7 Sudeste 19 Este 0 -- -- 62
2019-03-29 20:00:00 14 13 Sur 28 Sur 0 -- -- 60
2019-03-29 19:00:00 15.9 10 Sudeste 23 Sudeste 0 -- -- 55
2019-03-29 18:00:00 16.2 14 Sudeste 28 Sudeste 0 -- -- 56
2019-03-29 17:00:00 17.4 14 Sudeste 27 Sur 0 -- -- 52
2019-03-29 16:00:00 18.6 18 Sudeste 35 Sudeste 0 -- -- 51
2019-03-29 15:00:00 18.3 17 Sudeste 33 Sudeste 0 -- -- 50
2019-03-29 14:00:00 18.1 19 Sudeste 34 Sudeste 0 -- -- 49
2019-03-29 13:00:00 18.4 15 Sudeste 29 Sudeste 0 -- -- 48
2019-03-29 12:00:00 19.1 13 Sudeste 26 Sudeste 0 -- -- 45
2019-03-29 11:00:00 17.8 12 Sudeste 30 Sudeste 0 -- -- 48
2019-03-29 10:00:00 14 5 Noroeste 20 Sudeste 0 -- -- 50
2019-03-29 09:00:00 10 4 Noroeste 9 Norte 0 -- -- 60
2019-03-29 08:00:00 8.9 4 Noroeste 13 Sur 0 -- -- 62
2019-03-29 07:00:00 8.5 3 Norte 8 Noroeste 0 -- -- 58
2019-03-29 06:00:00 8.9 4 Norte 7 Norte 0 -- -- 53
2019-03-29 05:00:00 9.5 2 Norte 10 Sudeste 0 -- -- 54
2019-03-29 04:00:00 11.2 5 Sudeste 21 Sur 0 -- -- 42
2019-03-29 03:00:00 11.7 5 Sudeste 16 Sur 0 -- -- 34
2019-03-29 02:00:00 11.9 7 Sur 22 Sudeste 0 -- -- 38
2019-03-29 01:00:00 12.8 11 Sudeste 23 Este 0 -- -- 35
2019-03-29 00:00:00 13.4 12 Sudeste 27 Sudeste 0 -- -- 37
2019-03-28 23:00:00 13.3 8 Sudeste 31 Sudeste 0 -- -- 39
2019-03-28 22:00:00 13.5 9 Este 30 Sudeste 0 -- -- 32
2019-03-28 21:00:00 14.4 18 Sudeste 34 Sudeste 0 -- -- 29
2019-03-28 20:00:00 15 14 Sudeste 32 Sudeste 0 -- -- 30
2019-03-28 19:00:00 16.2 12 Sudeste 34 Sudeste 0 -- -- 32
2019-03-28 18:00:00 17.5 22 Sudeste 38 Sudeste 0 -- -- 33
2019-03-28 17:00:00 18.7 17 Sudeste 47 Sudeste 0 -- -- 34
2019-03-28 16:00:00 18.7 26 Sudeste 50 Sudeste 0 -- -- 36
2019-03-28 15:00:00 18.8 25 Sudeste 44 Sudeste 0 -- -- 43
2019-03-28 14:00:00 18.7 23 Sudeste 46 Sudeste 0 -- -- 39
2019-03-28 13:00:00 18.1 26 Sudeste 46 Sudeste 0 -- -- 37
2019-03-28 12:00:00 17.3 24 Sudeste 47 Sudeste 0 -- -- 41
2019-03-28 11:00:00 16.6 22 Sudeste 33 Sudeste 0 -- -- 38
2019-03-28 10:00:00 15.2 17 Sudeste 32 Este 0 -- -- 40
2019-03-28 09:00:00 11 5 Noroeste 12 Noroeste 0 -- -- 57
2019-03-28 08:00:00 6.3 2 Norte 6 Este 0 -- -- 69
2019-03-28 07:00:00 6.8 3 Sudeste 6 Nordeste 0 -- -- 69
2019-03-28 06:00:00 7 2 Nordeste 10 Norte 0 -- -- 69
2019-03-28 05:00:00 7.6 4 Norte 8 Este 0 -- -- 68
2019-03-28 04:00:00 10.2 6 Nordeste 17 Norte 0 -- -- 56
2019-03-28 03:00:00 11.4 4 Norte 44 Sudeste 0 -- -- 51
2019-03-28 02:00:00 12.5 14 Sudeste 46 Sudeste 0 -- -- 52
2019-03-28 01:00:00 13.1 24 Sudeste 46 Este 0 -- -- 52
2019-03-28 00:00:00 12.6 12 Sudeste 35 Sudeste 0 -- -- 58
2019-03-27 23:00:00 13.1 21 Sudeste 32 Sudeste 0 -- -- 56
2019-03-27 22:00:00 12.8 17 Sudeste 36 Sudeste 0 -- -- 55
2019-03-27 21:00:00 12.9 14 Sudeste 39 Sudeste 0 -- -- 45
2019-03-27 20:00:00 13.6 27 Sudeste 41 Sudeste 0 -- -- 44
2019-03-27 19:00:00 14.9 31 Sudeste 43 Sudeste 0 -- -- 44
2019-03-27 18:00:00 16.8 20 Sudeste 34 Sudeste 0 -- -- 38
2019-03-27 17:00:00 17.9 19 Sudeste 36 Este 0 -- -- 36
2019-03-27 16:00:00 18.4 21 Sudeste 37 Sudeste 0 -- -- 35
2019-03-27 15:00:00 18.4 25 Sudeste 48 Sudeste 0 -- -- 30
2019-03-27 14:00:00 18.4 17 Sudeste 41 Este 0 -- -- 32
2019-03-27 13:00:00 18.2 16 Sudeste 41 Sudeste 0 -- -- 33
2019-03-27 12:00:00 17.9 17 Sudeste 31 Sudeste 0 -- -- 36
2019-03-27 11:00:00 16.6 17 Sudeste 27 Sudeste 0 -- -- 41
2019-03-27 10:00:00 14.2 18 Sudeste 39 Este 0 -- -- 47
2019-03-27 09:00:00 13.8 12 Este 51 Sudeste 0 -- -- 46
2019-03-27 08:00:00 12.7 29 Sudeste 69 Sudeste 0 -- -- 45
2019-03-27 07:00:00 13 35 Sudeste 68 Este 0 -- -- 42
2019-03-27 06:00:00 13.4 29 Sudeste 57 Sudeste 0 -- -- 39
2019-03-27 05:00:00 13.5 25 Este 55 Este 0 -- -- 39
2019-03-27 04:00:00 13.8 18 Este 37 Este 0 -- -- 42
2019-03-27 03:00:00 14.1 20 Este 51 Este 0 -- -- 42
2019-03-27 02:00:00 14.2 26 Este 48 Este 0 -- -- 39
2019-03-27 01:00:00 13.8 20 Este 48 Este 0 -- -- 50
2019-03-27 00:00:00 14.4 28 Sudeste 45 Este 0 -- -- 51
2019-03-26 23:00:00 15.2 30 Sudeste 58 Sudeste 0 -- -- 59
2019-03-26 22:00:00 16.1 22 Sudeste 46 Sudeste 0 -- -- 53
2019-03-26 21:00:00 16.1 27 Sudeste 43 Sudeste 0 -- -- 51
2019-03-26 20:00:00 16.9 22 Sudeste 43 Sudeste 0 -- -- 44
2019-03-26 19:00:00 18.1 20 Sudeste 49 Sudeste 0 -- -- 32
2019-03-26 18:00:00 18.1 23 Sudeste 39 Sudeste 0 -- -- 39
2019-03-26 17:00:00 18.7 25 Sudeste 50 Sudeste 0 -- -- 39
2019-03-26 16:00:00 20.2 30 Sudeste 63 Sudeste 0 -- -- 38
2019-03-26 15:00:00 19.9 35 Sudeste 59 Sudeste 0 -- -- 38
2019-03-26 14:00:00 20.5 25 Sudeste 53 Sudeste 0 -- -- 42
2019-03-26 13:00:00 20.4 32 Sudeste 56 Sudeste 0 -- -- 43
2019-03-26 12:00:00 21.2 28 Sudeste 46 Sudeste 0 -- -- 41
2019-03-26 11:00:00 20.9 24 Sudeste 39 Sudeste 0 -- -- 42
2019-03-26 10:00:00 18.4 8 Este 22 Sudeste 0 -- -- 48
2019-03-26 09:00:00 14.7 3 Noroeste 10 Noroeste 0 -- -- 60
2019-03-26 08:00:00 13.1 6 Norte 9 Norte 0 -- -- 58
2019-03-26 07:00:00 13.5 3 Noroeste 8 Norte 0 -- -- 57
2019-03-26 06:00:00 12.9 2 Noroeste 12 Este 0 -- -- 61
2019-03-26 05:00:00 13.2 4 Norte 10 Nordeste 0 -- -- 59
2019-03-26 04:00:00 14.2 6 Norte 15 Norte 0 -- -- 56
2019-03-26 03:00:00 14.8 8 Norte 15 Norte 0 -- -- 53
2019-03-26 02:00:00 17.4 12 Sudeste 21 Sudeste 0 -- -- 43
2019-03-26 01:00:00 17.9 14 Sudeste 39 Sudeste 0 -- -- 42
2019-03-26 00:00:00 17.4 16 Sudeste 32 Este 0 -- -- 45
2019-03-25 23:00:00 17.1 10 Sudeste 32 Sudeste 0 -- -- 45
2019-03-25 22:00:00 17.4 15 Sudeste 35 Sudeste 0 -- -- 45
2019-03-25 21:00:00 15.9 10 Sudeste 23 Sur 0 -- -- 51
2019-03-25 20:00:00 16.5 7 Sur 27 Sudeste 0 -- -- 53
2019-03-25 19:00:00 19.4 18 Sur 32 Sudeste 0 -- -- 43
2019-03-25 18:00:00 21.1 21 Sudeste 33 Sudeste 0 -- -- 41
2019-03-25 17:00:00 22 19 Sudeste 31 Sudeste 0 -- -- 42
2019-03-25 16:00:00 22.4 17 Sur 33 Sur 0 -- -- 42
2019-03-25 15:00:00 22.8 15 Sudeste 33 Sudeste 0 -- -- 42
2019-03-25 14:00:00 22.2 18 Sudeste 32 Sudeste 0 -- -- 42
2019-03-25 13:00:00 21.4 19 Sudeste 30 Sudeste 0 -- -- 43
2019-03-25 12:00:00 21.1 11 Sudeste 25 Sudeste 0 -- -- 45
2019-03-25 11:00:00 18.1 6 Norte 12 Norte 0 -- -- 54
2019-03-25 10:00:00 15.3 5 Norte 8 Norte 0 -- -- 60
2019-03-25 09:00:00 11.1 0 Calma 8 Norte 0 -- -- 76
2019-03-25 08:00:00 10.2 0 Calma 6 Sur 0 -- -- 76
2019-03-25 07:00:00 10.1 3 Sur 9 Norte 0 -- -- 75
2019-03-25 06:00:00 10.6 2 Norte 9 Nordeste 0 -- -- 73
2019-03-25 05:00:00 11.2 2 Noroeste 6 Norte 0 -- -- 70
2019-03-25 04:00:00 11.6 3 Oeste 8 Norte 0 -- -- 66
2019-03-25 03:00:00 12.9 3 Noroeste 22 Sudeste 0 -- -- 63
2019-03-25 02:00:00 12.7 3 Norte 10 Este 0 -- -- 60
2019-03-25 01:00:00 14.3 6 Sudeste 24 Sudeste 0 -- -- 54
2019-03-25 00:00:00 14.9 10 Sudeste 28 Este 0 -- -- 53
2019-03-24 23:00:00 15.3 14 Sudeste 27 Sudeste 0 -- -- 50
2019-03-24 22:00:00 14.8 11 Sudeste 23 Sudeste 0 -- -- 52
2019-03-24 21:00:00 14.7 10 Sudeste 33 Sudeste 0 -- -- 54
2019-03-24 20:00:00 15.9 17 Sudeste 40 Sudeste 0 -- -- 51
2019-03-24 19:00:00 17.4 19 Sudeste 34 Sudeste 0 -- -- 48
2019-03-24 18:00:00 19.1 18 Sudeste 40 Sudeste 0 -- -- 46
2019-03-24 17:00:00 20.3 19 Sudeste 38 Este 0 -- -- 44
2019-03-24 16:00:00 20.2 20 Sudeste 36 Sudeste 0 -- -- 45
2019-03-24 15:00:00 20.1 24 Sudeste 40 Sudeste 0 -- -- 46
2019-03-24 14:00:00 19.8 25 Sudeste 43 Sudeste 0 -- -- 47
2019-03-24 13:00:00 19.1 29 Sudeste 41 Sudeste 0 -- -- 50
2019-03-24 12:00:00 18.2 26 Sudeste 55 Este 0 -- -- 54
2019-03-24 11:00:00 18 23 Sudeste 40 Sudeste 0 -- -- 55
2019-03-24 10:00:00 16.9 23 Sudeste 36 Sudeste 0 -- -- 57
2019-03-24 09:00:00 14.9 5 Este 21 Este 0 -- -- 58
2019-03-24 08:00:00 13.9 15 Sudeste 35 Sudeste 0 -- -- 63
2019-03-24 07:00:00 10.8 5 Sur 13 Sur 0 -- -- 73
2019-03-24 06:00:00 9 0 Calma 9 Noroeste 0 -- -- 74
2019-03-24 05:00:00 10.9 4 Nordeste 21 Sudeste 0 -- -- 68
2019-03-24 04:00:00 11.3 0 Calma 10 Norte 0 -- -- 66
2019-03-24 03:00:00 13.2 5 Este 41 Sur 0 -- -- 61
2019-03-24 02:00:00 13.9 27 Sudeste 48 Sudeste 0 -- -- 60
2019-03-24 01:00:00 13.9 19 Sudeste 52 Este 0 -- -- 56
2019-03-24 00:00:00 14.2 28 Sudeste 46 Sudeste 0 -- -- 55
2019-03-23 23:00:00 14.2 17 Sudeste 40 Sudeste 0 -- -- 53
2019-03-23 22:00:00 14.3 23 Sudeste 36 Sudeste 0 -- -- 49
2019-03-23 21:00:00 14 17 Sudeste 39 Sudeste 0 -- -- 50
2019-03-23 20:00:00 15 23 Sudeste 36 Sudeste 0 -- -- 48
2019-03-23 19:00:00 16.3 20 Sudeste 38 Sudeste 0 -- -- 44
2019-03-23 18:00:00 17.6 22 Sudeste 42 Sudeste 0 -- -- 44
2019-03-23 17:00:00 18 24 Este 48 Sudeste 0 -- -- 43
2019-03-23 16:00:00 18.1 26 Sudeste 51 Sudeste 0 -- -- 45
2019-03-23 15:00:00 18.5 27 Sudeste 50 Sudeste 0 -- -- 45
2019-03-23 14:00:00 18.5 28 Sudeste 48 Sudeste 0 -- -- 47
2019-03-23 13:00:00 18.5 26 Sudeste 53 Sudeste 0 -- -- 45
2019-03-23 12:00:00 18.1 27 Sudeste 58 Sudeste 0 -- -- 45
2019-03-23 11:00:00 17.3 27 Sudeste 46 Este 0 -- -- 49
2019-03-23 10:00:00 16.2 27 Sudeste 51 Este 0 -- -- 51
2019-03-23 09:00:00 15 27 Sudeste 47 Sudeste 0 -- -- 52
2019-03-23 08:00:00 13.7 17 Sudeste 38 Sudeste 0 -- -- 54
2019-03-23 07:00:00 13.9 18 Sudeste 43 Sudeste 0 -- -- 52
2019-03-23 06:00:00 13.8 18 Sudeste 34 Sudeste 0 -- -- 53
2019-03-23 05:00:00 13.7 19 Sudeste 35 Este 0 -- -- 55
2019-03-23 04:00:00 13.9 17 Sudeste 37 Sudeste 0 -- -- 54
2019-03-23 03:00:00 13.8 16 Sudeste 44 Sudeste 0 -- -- 53
2019-03-23 02:00:00 13.4 18 Sudeste 34 Sudeste 0 -- -- 53
2019-03-23 01:00:00 13.4 13 Sudeste 38 Sudeste 0 -- -- 50
2019-03-23 00:00:00 13.8 27 Sudeste 44 Sudeste 0 -- -- 49
2019-03-22 23:00:00 12.4 12 Sudeste 29 Sudeste 0 -- -- 54
2019-03-22 22:00:00 11.3 4 Norte 10 Sudoeste 0 -- -- 57
2019-03-22 21:00:00 11.8 5 Norte 11 Norte 0 -- -- 57
2019-03-22 20:00:00 12.3 5 Norte 11 Norte 0 -- -- 61
2019-03-22 19:00:00 15.2 11 Sudoeste 24 Sudeste 0 -- -- 52
2019-03-22 18:00:00 17.5 17 Sudeste 29 Sur 0 -- -- 41
2019-03-22 17:00:00 19.2 19 Sudeste 34 Sudeste 0 -- -- 40
2019-03-22 16:00:00 19.5 15 Sudeste 33 Sudeste 0 -- -- 41
2019-03-22 15:00:00 19.6 17 Sudeste 31 Sudeste 0 -- -- 38
2019-03-22 14:00:00 19.2 18 Sudeste 32 Sudeste 0 -- -- 41
2019-03-22 13:00:00 18.2 15 Sur 29 Sur 0 -- -- 44
2019-03-22 12:00:00 17.3 17 Sudeste 31 Sudeste 0 -- -- 44
2019-03-22 11:00:00 16.3 8 Sudoeste 22 Sudoeste 0 -- -- 45
2019-03-22 10:00:00 13 5 Norte 9 Norte 0 -- -- 58
2019-03-22 09:00:00 10.1 3 Nordeste 7 Este 0 -- -- 71
2019-03-22 08:00:00 7.4 5 Este 8 Este 0 -- -- 76
2019-03-22 07:00:00 7.7 4 Norte 9 Nordeste 0 -- -- 73
2019-03-22 06:00:00 8.4 6 Norte 10 Norte 0 -- -- 69
2019-03-22 05:00:00 9.7 2 Este 22 Este 0 -- -- 62
2019-03-22 04:00:00 11.4 13 Sudeste 26 Sudeste 0 -- -- 55
2019-03-22 03:00:00 12.2 13 Sudeste 46 Este 0 -- -- 53
2019-03-22 02:00:00 11.8 14 Sudeste 28 Sudeste 0 -- -- 55
2019-03-22 01:00:00 11.5 13 Sudeste 28 Sudeste 0 -- -- 59
2019-03-22 00:00:00 11.6 14 Sudeste 26 Sudeste 0 -- -- 57
2019-03-21 23:00:00 11.3 19 Sudeste 31 Sudeste 0 -- -- 57
2019-03-21 22:00:00 11.4 17 Sudeste 33 Sudeste 0 -- -- 55
2019-03-21 21:00:00 11.7 21 Sudeste 30 Sudeste 0 -- -- 54
2019-03-21 20:00:00 12.3 17 Sudeste 29 Sudeste 0 -- -- 54
2019-03-21 19:00:00 14.1 14 Sudeste 32 Sur 0 -- -- 48
2019-03-21 18:00:00 15.8 15 Sudeste 32 Sudeste 0 -- -- 43
2019-03-21 17:00:00 16.8 17 Sudeste 35 Sudeste 0 -- -- 41
2019-03-21 16:00:00 17.4 17 Sudeste 34 Este 0 -- -- 40
2019-03-21 15:00:00 17.6 9 Sudeste 35 Sudeste 0 -- -- 37
2019-03-21 14:00:00 17 19 Sudeste 37 Sudeste 0 -- -- 39
2019-03-21 13:00:00 17.1 8 Sur 31 Sudeste 0 -- -- 36
2019-03-21 12:00:00 16.1 15 Sudeste 28 Sudeste 0 -- -- 40
2019-03-21 11:00:00 15 17 Sudeste 30 Sudeste 0 -- -- 37
2019-03-21 10:00:00 12 4 Noroeste 6 Noroeste 0 -- -- 64
2019-03-21 09:00:00 9.1 0 Calma 6 Sudeste 0 -- -- 74
2019-03-21 08:00:00 6.2 2 Este 12 Sudeste 0 -- -- 80
2019-03-21 07:00:00 7.3 5 Este 15 Norte 0 -- -- 75
2019-03-21 06:00:00 7.7 3 Nordeste 9 Este 0 -- -- 74
2019-03-21 05:00:00 9.1 5 Este 14 Sudeste 0 -- -- 69
2019-03-21 04:00:00 10.5 12 Sudeste 26 Sudeste 0 -- -- 65
2019-03-21 03:00:00 10.4 9 Sudeste 27 Sur 0 -- -- 66
2019-03-21 02:00:00 10.3 12 Sudeste 26 Sudeste 0 -- -- 65
2019-03-21 01:00:00 11.5 19 Sudeste 32 Sur 0 -- -- 59
2019-03-21 00:00:00 11.3 15 Sudeste 31 Sur 0 -- -- 60
2019-03-20 23:00:00 11.5 18 Sudeste 33 Sudeste 0 -- -- 59
2019-03-20 22:00:00 11.6 17 Sudeste 32 Sudeste 0 -- -- 57
2019-03-20 21:00:00 12.1 17 Sudeste 33 Sudeste 0 -- -- 52
2019-03-20 20:00:00 12.5 19 Sudeste 33 Sudeste 0 -- -- 53
2019-03-20 19:00:00 13.9 19 Sudeste 39 Sudeste 0 -- -- 52
2019-03-20 18:00:00 15.8 23 Sudeste 37 Sudeste 0 -- -- 47
2019-03-20 17:00:00 17 18 Sudeste 40 Sudoeste 0 -- -- 45
2019-03-20 16:00:00 16.9 12 Sur 27 Sudeste 0 -- -- 44
2019-03-20 15:00:00 17.5 17 Sudeste 33 Sudeste 0 -- -- 37
2019-03-20 14:00:00 14.8 15 Sudeste 45 Sudeste 0 -- -- 48
2019-03-20 13:00:00 14.9 18 Sudeste 33 Sudeste 0 -- -- 52
2019-03-20 12:00:00 15 8 Sudeste 31 Sur 0 -- -- 53
2019-03-20 11:00:00 16.1 12 Sur 22 Sur 0 -- -- 54
2019-03-20 10:00:00 13.2 3 Noroeste 10 Oeste 0 -- -- 62
2019-03-20 09:00:00 10.5 3 Norte 6 Norte 0 -- -- 69
2019-03-20 08:00:00 8.4 2 Noroeste 6 Nordeste 0 -- -- 75
2019-03-20 07:00:00 10.1 5 Este 16 Sudeste 0 -- -- 69
2019-03-20 06:00:00 9.7 13 Sudeste 21 Sudeste 0 -- -- 73
2019-03-20 05:00:00 10.3 12 Sudeste 23 Este 0 -- -- 73
2019-03-20 04:00:00 11.5 15 Este 24 Este 0 -- -- 66
2019-03-20 03:00:00 10.2 6 Este 14 Sudeste 0 -- -- 68
2019-03-20 02:00:00 10.8 8 Este 15 Este 0 -- -- 59
2019-03-20 01:00:00 11 6 Este 14 Sudeste 0 -- -- 51
2019-03-20 00:00:00 13 7 Este 20 Este 0 -- -- 40
2019-03-19 23:00:00 13.4 8 Este 14 Este 0 -- -- 37
2019-03-19 22:00:00 14 3 Nordeste 21 Norte 0 -- -- 39
2019-03-19 21:00:00 14.4 7 Nordeste 21 Este 0 -- -- 40
2019-03-19 20:00:00 15.4 8 Nordeste 29 Nordeste 0 -- -- 36
2019-03-19 19:00:00 17.7 13 Nordeste 33 Nordeste 0 -- -- 32
2019-03-19 18:00:00 19.1 15 Norte 34 Nordeste 0 -- -- 32
2019-03-19 17:00:00 20 15 Nordeste 35 Norte 0 -- -- 29
2019-03-19 16:00:00 20.6 16 Nordeste 33 Norte 0 -- -- 28
2019-03-19 15:00:00 20.2 15 Norte 35 Norte 0 -- -- 33
2019-03-19 14:00:00 19.9 15 Norte 36 Norte 0 -- -- 37
2019-03-19 13:00:00 19.6 6 Sudoeste 14 Noroeste 0 -- -- 47
2019-03-19 12:00:00 17.3 5 Oeste 13 Noroeste 0 -- -- 65
2019-03-19 11:00:00 15.4 4 Oeste 9 Oeste 0 -- -- 73
2019-03-19 10:00:00 12.6 2 Oeste 5 Noroeste 0 -- -- 83
2019-03-19 09:00:00 9.7 0 Calma 3 Norte 0 -- -- 92
2019-03-19 08:00:00 7.7 0 Calma 5 Este 0 -- -- 94
2019-03-19 07:00:00 8.1 0 Calma 4 Sudeste 0 -- -- 95
2019-03-19 06:00:00 8.2 0 Calma 9 Este 0 -- -- 93
2019-03-19 05:00:00 8.7 5 Este 9 Este 0 -- -- 92
2019-03-19 04:00:00 9.1 0 Calma 9 Este 0 -- -- 91
2019-03-19 03:00:00 9.4 6 Este 12 Este 0 -- -- 92
2019-03-19 02:00:00 9.8 5 Este 9 Este 0 -- -- 89
2019-03-19 01:00:00 10.6 2 Nordeste 9 Este 0 -- -- 88
2019-03-19 00:00:00 11.6 7 Sudeste 18 Este 0 -- -- 84